Time;durP1;ratioP1;P1;durP2;ratioP2;P2;SDS_P1;SDS_P2;PMS_P1;PMS_P2;Temp;Humidity;BMP_temperature;BMP_pressure;BME280_temperature;BME280_humidity;BME280_pressure;Samples;Min_cycle;Max_cycle;Signal;HPM_P1;HPM_P2
2022/06/22 00:01:43;;;;;;;3.87;3.07;;;26.00;51.80;;;-142.21;55.88;112049.66;5033226;28;20567;-78
2022/06/22 00:04:20;;;;;;;3.30;3.00;;;26.00;51.00;;;-142.21;55.64;112049.66;5032833;28;20198;-78
2022/06/22 00:06:55;;;;;;;5.47;2.80;;;26.00;50.80;;;-142.21;53.02;112049.66;5031240;28;20210;-77
2022/06/22 00:09:29;;;;;;;4.00;2.70;;;26.00;50.00;;;-142.21;52.49;112049.66;5032738;28;20195;-77
2022/06/22 00:11:59;;;;;;;3.07;2.77;;;26.00;49.80;;;-142.21;52.84;112049.66;5032158;28;20185;-78
2022/06/22 00:14:32;;;;;;;2.97;2.73;;;26.00;49.90;;;-142.21;53.66;112049.66;5048616;28;20213;-78
2022/06/22 00:17:02;;;;;;;2.80;2.60;;;26.00;50.00;;;-142.21;53.94;112049.66;5032098;28;20207;-79
2022/06/22 00:19:40;;;;;;;3.90;2.80;;;25.90;50.10;;;-142.21;53.83;112049.66;5032871;28;20222;-79
2022/06/22 00:22:25;;;;;;;4.73;2.90;;;25.90;50.10;;;-142.21;53.50;112049.66;5032913;28;20182;-79
2022/06/22 00:25:03;;;;;;;3.23;2.70;;;25.80;49.90;;;-142.21;53.84;112049.66;5015053;28;20667;-76
2022/06/22 00:27:37;;;;;;;4.83;3.13;;;25.80;50.00;;;-142.21;53.65;112049.66;5031717;28;20647;-79
2022/06/22 00:30:19;;;;;;;2.67;2.47;;;25.80;50.00;;;-142.21;54.83;112049.66;5031879;28;20230;-77
2022/06/22 00:33:14;;;;;;;4.07;2.87;;;25.70;50.50;;;-142.21;54.16;112049.66;5032202;28;20195;-79
2022/06/22 00:35:52;;;;;;;3.33;2.70;;;25.70;50.30;;;-142.21;53.49;112049.66;5032742;28;20278;-79
2022/06/22 00:38:22;;;;;;;2.80;2.60;;;25.60;50.10;;;-142.21;52.60;112049.66;5032936;28;20209;-77
2022/06/22 00:41:00;;;;;;;5.77;2.60;;;25.60;49.90;;;-142.21;53.92;112049.66;5031675;28;20219;-76
2022/06/22 00:43:33;;;;;;;5.27;2.90;;;25.60;50.20;;;-142.21;54.56;112049.66;5014458;28;20203;-77
2022/06/22 00:46:02;;;;;;;3.13;2.47;;;25.50;50.30;;;-142.21;53.68;112049.66;5032032;28;20245;-78
2022/06/22 00:48:34;;;;;;;3.07;2.73;;;25.40;50.00;;;-142.21;53.80;112049.66;5032559;28;20641;-78
2022/06/22 00:51:06;;;;;;;2.87;2.40;;;25.40;50.00;;;-142.21;53.24;112049.66;5030520;28;20583;-77
2022/06/22 00:53:41;;;;;;;3.87;2.80;;;25.40;50.10;;;-142.21;51.93;112049.66;5030998;28;20190;-78
2022/06/22 00:56:22;;;;;;;2.93;2.57;;;25.30;49.40;;;-142.21;52.12;112049.66;5032114;28;20185;-78
2022/06/22 00:59:01;;;;;;;4.33;2.80;;;25.30;49.40;;;-142.21;51.59;112049.66;5030795;28;20555;-77
2022/06/22 01:01:42;;;;;;;2.50;2.30;;;25.30;49.20;;;-142.21;50.79;112049.66;5032538;28;20213;-76
2022/06/22 01:04:18;;;;;;;4.60;2.63;;;25.30;49.00;;;-142.21;51.55;112049.66;5032412;28;20225;-77
2022/06/22 01:06:53;;;;;;;2.67;2.30;;;25.20;49.20;;;-142.21;52.36;112049.66;5014886;28;20663;-77
2022/06/22 01:09:40;;;;;;;3.40;2.33;;;25.20;49.50;;;-142.21;52.25;112049.66;5047499;28;20289;-77
2022/06/22 01:12:17;;;;;;;2.73;2.23;;;25.10;49.40;;;-142.21;52.42;112049.66;5031483;28;20278;-74
2022/06/22 01:14:58;;;;;;;3.53;2.80;;;25.10;49.40;;;-142.21;52.73;112049.66;5032017;28;20369;-76
2022/06/22 01:17:33;;;;;;;4.10;2.70;;;25.00;49.60;;;-142.21;52.83;112049.66;5032422;28;20195;-77
2022/06/22 01:20:14;;;;;;;2.53;2.33;;;24.90;49.70;;;-142.21;53.34;112049.66;5031629;28;20222;-78
2022/06/22 01:23:30;;;;;;;5.70;2.80;;;24.90;50.00;;;-142.21;53.49;112049.66;5031912;28;20238;-76
2022/06/22 01:26:21;;;;;;;2.97;2.50;;;24.80;50.10;;;-142.21;52.90;112049.66;5031712;28;20191;-78
2022/06/22 01:28:54;;;;;;;5.33;2.40;;;24.80;50.00;;;-142.21;52.63;112049.66;5030224;28;20245;-77
2022/06/22 01:31:21;;;;;;;3.37;2.27;;;24.80;49.80;;;-142.21;53.03;112049.66;5031866;28;20191;-77
2022/06/22 01:33:54;;;;;;;3.37;2.30;;;24.80;50.00;;;-142.21;52.69;112049.66;5030380;28;20293;-75
2022/06/22 01:36:25;;;;;;;2.70;2.50;;;24.80;49.70;;;-142.21;52.85;112049.66;5031810;28;20194;-79
2022/06/22 01:38:53;;;;;;;3.93;2.70;;;24.70;49.60;;;-142.21;52.64;112049.66;5032024;28;20190;-77
2022/06/22 01:41:40;;;;;;;4.67;2.60;;;24.60;49.60;;;-142.21;52.29;112049.66;5035418;28;20242;-79
2022/06/22 01:44:19;;;;;;;4.37;2.77;;;24.50;49.60;;;-142.21;53.06;112049.66;5034975;28;20715;-76
2022/06/22 01:47:23;;;;;;;3.00;2.50;;;24.40;50.50;;;-142.21;54.28;112049.66;5034892;28;20194;-77
2022/06/22 01:50:04;;;;;;;2.77;2.23;;;24.40;50.30;;;-142.21;53.92;112049.66;5035100;28;20256;-77
2022/06/22 01:52:51;;;;;;;2.47;2.10;;;24.50;50.40;;;-142.21;53.70;112049.66;5035331;28;20201;-78
2022/06/22 01:55:31;;;;;;;2.73;2.40;;;24.50;50.20;;;-142.21;52.60;112049.66;5035758;28;20588;-77
2022/06/22 01:58:24;;;;;;;5.23;2.13;;;24.50;49.80;;;-142.21;53.10;112049.66;5033924;28;20197;-77
2022/06/22 02:00:59;;;;;;;2.47;2.27;;;24.50;49.70;;;-142.21;55.68;112049.66;5034951;28;20217;-77
2022/06/22 02:03:34;;;;;;;3.17;2.47;;;24.40;50.70;;;-142.21;58.93;112049.66;5000906;28;20205;-74
2022/06/22 02:08:55;;;;;;;2.80;2.30;;;24.40;52.70;;;-142.21;64.30;112049.66;5034920;28;20252;-77
2022/06/22 02:11:29;;;;;;;3.77;2.57;;;24.40;52.70;;;-142.21;65.28;112049.66;5036000;28;20273;-76
2022/06/22 02:14:03;;;;;;;2.20;2.00;;;24.30;53.20;;;-142.21;63.81;112049.66;5004883;28;20206;-78
2022/06/22 02:16:40;;;;;;;2.47;2.20;;;24.30;53.00;;;-142.21;61.01;112049.66;5038973;28;20201;-78
2022/06/22 02:19:14;;;;;;;2.80;2.60;;;24.20;52.30;;;-142.21;63.51;112049.66;5032793;28;20224;-78
2022/06/22 02:21:45;;;;;;;3.30;2.50;;;24.10;53.20;;;-142.21;65.09;112049.66;5034635;28;20206;-77
2022/06/22 02:24:17;;;;;;;2.70;2.50;;;24.00;53.30;;;-142.21;65.69;112049.66;5034361;28;20201;-77
2022/06/22 02:26:52;;;;;;;2.80;2.50;;;24.00;53.60;;;-142.21;65.96;112049.66;5035075;28;20190;-77
2022/06/22 02:29:28;;;;;;;2.47;2.27;;;24.00;53.50;;;-142.21;67.37;112049.66;5033364;28;20320;-77
2022/06/22 02:32:05;;;;;;;3.20;2.30;;;24.00;53.90;;;-142.21;68.44;112049.66;5046256;28;20708;-77
2022/06/22 02:34:36;;;;;;;3.70;2.83;;;23.90;54.20;;;-142.21;69.13;112049.66;5074717;28;20189;-77
2022/06/22 02:37:10;;;;;;;2.83;2.10;;;23.90;54.40;;;-142.21;69.98;112049.66;5074043;28;20209;-78
2022/06/22 02:39:44;;;;;;;2.70;2.50;;;23.80;54.50;;;-142.21;70.57;112049.66;5074487;28;20276;-78
2022/06/22 02:44:59;;;;;;;2.70;2.40;;;23.70;54.80;;;-142.21;71.03;112049.66;5034147;28;20196;-77
2022/06/22 02:47:32;;;;;;;3.00;2.53;;;23.70;54.70;;;-142.21;70.51;112049.66;5034629;28;20217;-78
2022/06/22 02:50:13;;;;;;;3.97;2.57;;;23.60;54.80;;;-142.21;70.79;112049.66;5033290;28;20308;-78
2022/06/22 02:52:48;;;;;;;3.97;2.50;;;23.60;55.00;;;-142.21;70.43;112049.66;5034459;28;20191;-78
2022/06/22 02:55:20;;;;;;;3.60;2.63;;;23.50;54.70;;;-142.21;68.09;112049.66;5034241;28;20281;-79
2022/06/22 02:57:56;;;;;;;2.43;2.23;;;23.50;54.30;;;-142.21;68.24;112049.66;5034127;28;20197;-78
2022/06/22 03:00:26;;;;;;;2.50;2.30;;;23.40;54.30;;;-142.21;69.49;112049.66;5033939;28;20209;-78
2022/06/22 03:03:01;;;;;;;3.03;2.60;;;23.40;54.40;;;-142.21;67.94;112049.66;5048990;28;20264;-77
2022/06/22 03:05:29;;;;;;;3.70;2.63;;;23.40;54.40;;;-142.21;67.51;112049.66;5033637;28;20192;-78
2022/06/22 03:08:02;;;;;;;2.77;2.33;;;23.30;54.20;;;-142.21;67.80;112049.66;5033633;28;20299;-78
2022/06/22 03:10:34;;;;;;;3.10;2.50;;;23.30;54.20;;;-142.21;69.56;112049.66;5016246;28;20289;-78
2022/06/22 03:13:02;;;;;;;3.50;2.43;;;23.30;54.70;;;-142.21;69.32;112049.66;5032143;28;20222;-78
2022/06/22 03:15:37;;;;;;;2.83;2.50;;;23.30;54.60;;;-142.21;68.51;112049.66;5033850;28;20231;-78
2022/06/22 03:18:14;;;;;;;3.07;2.40;;;23.30;54.50;;;-142.21;67.94;112049.66;5033690;28;20190;-76
2022/06/22 03:21:07;;;;;;;2.70;2.50;;;23.30;54.40;;;-142.21;69.93;112049.66;5015560;28;20275;-75
2022/06/22 03:23:50;;;;;;;3.20;2.70;;;23.30;55.10;;;-142.21;68.96;112049.66;5033487;28;20281;-80
2022/06/22 03:26:23;;;;;;;3.07;2.57;;;23.20;54.80;;;-142.21;70.42;112049.66;5033639;28;20278;-77
2022/06/22 03:28:58;;;;;;;5.00;2.70;;;23.00;55.20;;;-142.21;72.32;112049.66;5033647;28;20274;-78
2022/06/22 03:31:33;;;;;;;2.80;2.60;;;23.10;55.60;;;-142.21;72.61;112049.66;5033764;28;20277;-78
2022/06/22 03:34:10;;;;;;;4.53;2.93;;;23.10;55.80;;;-142.21;71.76;112049.66;5031557;28;20193;-78
2022/06/22 03:36:47;;;;;;;2.73;2.50;;;23.10;55.40;;;-142.21;70.85;112049.66;5033435;28;20602;-79
2022/06/22 03:39:20;;;;;;;4.03;2.43;;;23.10;55.00;;;-142.21;69.91;112049.66;5033040;28;20279;-79
2022/06/22 03:41:56;;;;;;;3.77;3.13;;;23.10;54.60;;;-142.21;70.10;112049.66;5033302;28;20698;-78
2022/06/22 03:44:33;;;;;;;3.40;2.50;;;23.10;54.60;;;-142.21;70.07;112049.66;5033318;28;20192;-78
2022/06/22 03:47:10;;;;;;;2.60;2.40;;;23.10;54.70;;;-142.21;72.15;112049.66;5032858;28;20281;-77
2022/06/22 03:49:48;;;;;;;4.07;3.43;;;23.10;55.40;;;-142.21;73.00;112049.66;5033169;28;20190;-78
2022/06/22 03:52:22;;;;;;;4.03;3.03;;;23.10;55.90;;;-142.21;74.14;112049.66;5032539;28;20669;-78
2022/06/22 03:55:01;;;;;;;3.77;2.80;;;23.10;55.90;;;-142.21;73.89;112049.66;5033070;28;20194;-77
2022/06/22 03:57:35;;;;;;;2.67;2.47;;;23.10;56.00;;;-142.21;74.58;112049.66;5033089;28;20187;-78
2022/06/22 04:00:05;;;;;;;3.93;2.73;;;23.20;56.30;;;-142.21;74.77;112049.66;5032327;28;20634;-77
2022/06/22 04:02:34;;;;;;;3.93;2.47;;;23.20;56.50;;;-142.21;75.18;112049.66;5032079;28;20182;-78
2022/06/22 04:05:06;;;;;;;4.27;2.70;;;23.20;56.60;;;-142.21;73.41;112049.66;5032426;28;20210;-76
2022/06/22 04:07:39;;;;;;;5.57;2.70;;;23.30;56.40;;;-142.21;75.97;112049.66;5031852;28;20302;-77
2022/06/22 04:10:17;;;;;;;3.40;2.33;;;23.30;56.80;;;-142.21;76.29;112049.66;5032286;28;20645;-78
2022/06/22 04:12:51;;;;;;;2.93;2.50;;;23.30;57.00;;;-142.21;76.80;112049.66;5032839;28;20190;-79
2022/06/22 04:15:31;;;;;;;4.37;2.80;;;23.30;57.20;;;-142.21;78.07;112049.66;5032294;28;20230;-77
2022/06/22 04:18:06;;;;;;;3.93;2.70;;;23.30;57.60;;;-142.21;77.75;112049.66;5030998;28;20191;-76
2022/06/22 04:20:54;;;;;;;3.20;2.90;;;23.30;57.50;;;-142.21;78.43;112049.66;5032771;28;20213;-77
2022/06/22 04:23:34;;;;;;;5.17;2.90;;;23.30;57.60;;;-142.21;80.18;112049.66;5032754;28;20195;-76
2022/06/22 04:26:10;;;;;;;3.57;3.13;;;23.30;58.40;;;-142.21;80.90;112049.66;5032429;28;20280;-77
2022/06/22 04:28:42;;;;;;;2.73;2.53;;;23.30;58.40;;;-142.21;82.22;112049.66;5032841;28;20266;-77
2022/06/22 04:31:19;;;;;;;3.20;2.90;;;23.20;58.70;;;-142.21;80.85;112049.66;5031848;28;20238;-76
2022/06/22 04:33:53;;;;;;;3.40;3.00;;;23.30;58.60;;;-142.21;81.52;112049.66;5031534;28;20195;-77
2022/06/22 04:36:29;;;;;;;10.53;4.17;;;23.30;58.40;;;-142.21;81.94;112049.66;5032739;28;20293;-77
2022/06/22 04:39:02;;;;;;;7.73;3.60;;;23.20;58.90;;;-142.21;79.58;112049.66;5031830;28;20197;-79
2022/06/22 04:41:35;;;;;;;5.70;3.53;;;23.20;58.30;;;-142.21;78.13;112049.66;5032697;28;20226;-77
2022/06/22 04:44:10;;;;;;;8.87;3.90;;;23.20;57.50;;;-142.21;78.46;112049.66;5031903;28;20659;-77
2022/06/22 04:46:43;;;;;;;3.30;3.00;;;23.20;57.60;;;-142.21;78.38;112049.66;5059031;28;20203;-76
2022/06/22 04:49:21;;;;;;;4.53;3.20;;;23.20;57.50;;;-142.21;77.67;112049.66;5072009;28;20232;-76
2022/06/22 04:51:55;;;;;;;3.67;3.00;;;23.20;57.40;;;-142.21;77.31;112049.66;5072197;28;20227;-76
2022/06/22 04:54:30;;;;;;;10.13;3.80;;;23.20;57.30;;;-142.21;78.90;112049.66;5071048;28;20271;-76
2022/06/22 04:57:05;;;;;;;8.13;4.50;;;23.20;57.60;;;-142.21;79.78;112049.66;5071855;28;20281;-78
2022/06/22 04:59:34;;;;;;;8.50;4.33;;;23.30;57.80;;;-142.21;80.54;112049.66;5072142;28;20189;-77
2022/06/22 05:02:05;;;;;;;2.87;2.63;;;23.30;58.00;;;-142.21;77.96;112049.66;5071327;28;20220;-77
2022/06/22 05:04:37;;;;;;;2.70;2.30;;;23.30;57.20;;;-142.21;76.16;112049.66;5031287;28;20201;-78
2022/06/22 05:07:28;;;;;;;4.17;3.03;;;23.30;56.90;;;-142.21;73.97;112049.66;5031672;28;20291;-77
2022/06/22 05:10:03;;;;;;;3.03;2.27;;;23.30;56.10;;;-142.21;73.93;112049.66;5032510;28;20212;-77
2022/06/22 05:12:51;;;;;;;2.37;2.17;;;23.40;56.20;;;-142.21;73.40;112049.66;5050440;28;20561;-76
2022/06/22 05:15:27;;;;;;;2.70;2.50;;;23.40;56.10;;;-142.21;72.75;112049.66;5075356;28;20235;-78
2022/06/22 05:17:55;;;;;;;4.07;2.20;;;23.40;56.00;;;-142.21;69.22;112049.66;5076435;28;20194;-79
2022/06/22 05:20:31;;;;;;;3.10;2.30;;;23.50;55.00;;;-142.21;67.56;112049.66;5074598;28;20294;-79
2022/06/22 05:23:04;;;;;;;4.07;2.57;;;23.50;54.40;;;-142.21;68.13;112049.66;5075261;28;20191;-77
2022/06/22 05:25:33;;;;;;;4.93;2.27;;;23.50;55.00;;;-142.21;67.84;112049.66;5076580;28;20298;-77
2022/06/22 05:28:06;;;;;;;2.73;2.23;;;23.60;54.40;;;-142.21;69.14;112049.66;5075379;28;20659;-79
2022/06/22 05:30:42;;;;;;;2.53;2.33;;;23.60;54.50;;;-142.21;68.43;112049.66;5075377;28;20232;-78
2022/06/22 05:33:17;;;;;;;3.40;2.87;;;23.70;54.30;;;-142.21;67.05;112049.66;5057282;28;20191;-76
2022/06/22 05:35:50;;;;;;;2.50;2.00;;;23.70;54.20;;;-142.21;65.19;112049.66;5057956;28;20545;-78
2022/06/22 05:38:22;;;;;;;3.17;2.50;;;23.70;53.70;;;-142.21;63.27;112049.66;5058034;28;20285;-79
2022/06/22 05:40:53;;;;;;;2.20;2.00;;;23.70;53.00;;;-142.21;58.19;112049.66;5036109;28;20572;-78
2022/06/22 05:43:22;;;;;;;3.17;2.30;;;23.70;51.80;;;-142.21;57.15;112049.66;5041393;28;20217;-79
2022/06/22 05:46:02;;;;;;;3.37;2.50;;;23.50;51.20;;;-142.21;58.35;112049.66;5073420;28;20303;-78
2022/06/22 05:48:36;;;;;;;2.57;2.13;;;23.40;51.70;;;-142.21;57.75;112049.66;5055366;28;20202;-79
2022/06/22 05:51:13;;;;;;;2.67;2.30;;;23.30;51.80;;;-142.21;57.88;112049.66;5048081;28;20201;-78
2022/06/22 05:53:52;;;;;;;2.73;2.47;;;23.10;51.70;;;-142.21;57.93;112049.66;5059067;28;20208;-79
2022/06/22 05:56:30;;;;;;;5.50;2.50;;;23.20;51.90;;;-142.21;57.92;112049.66;5074659;28;20191;-79
2022/06/22 05:59:10;;;;;;;3.00;2.10;;;23.20;51.90;;;-142.21;60.69;112049.66;5075218;28;20518;-79
2022/06/22 06:01:50;;;;;;;2.17;1.97;;;23.30;52.60;;;-142.21;61.12;112049.66;5075602;28;20211;-78
2022/06/22 06:04:31;;;;;;;2.23;2.03;;;23.50;52.90;;;-142.21;62.56;112049.66;5073226;28;20197;-79
2022/06/22 06:07:08;;;;;;;3.13;2.10;;;23.50;52.60;;;-142.21;62.99;112049.66;5075398;28;20219;-80
2022/06/22 06:09:36;;;;;;;3.77;2.60;;;23.70;53.00;;;-142.21;62.89;112049.66;5074006;28;20284;-79
2022/06/22 06:12:14;;;;;;;2.57;2.37;;;23.80;53.00;;;-142.21;65.23;112049.66;5074283;28;20713;-78
2022/06/22 06:14:47;;;;;;;4.87;2.80;;;23.80;53.10;;;-142.21;63.75;112049.66;5074703;28;20235;-79
2022/06/22 06:17:28;;;;;;;3.37;2.47;;;23.90;53.20;;;-142.21;61.79;112049.66;5074493;28;20189;-77
2022/06/22 06:19:59;;;;;;;4.00;2.53;;;23.90;52.60;;;-142.21;62.18;112049.66;5073965;28;20236;-79
2022/06/22 06:22:30;;;;;;;3.67;2.17;;;23.90;52.60;;;-142.21;60.87;112049.66;5075509;28;20630;-78
2022/06/22 06:27:59;;;;;;;1.83;1.73;;;24.00;52.60;;;-142.21;59.63;112049.66;5074540;28;20193;-79
2022/06/22 06:30:34;;;;;;;3.60;2.40;;;24.00;51.90;;;-142.21;60.75;112049.66;5074454;28;20705;-77
2022/06/22 06:33:17;;;;;;;4.73;2.13;;;24.10;52.20;;;-142.21;60.80;112049.66;5074842;28;20197;-76
2022/06/22 06:35:52;;;;;;;2.13;2.00;;;24.10;52.20;;;-142.21;61.11;112049.66;5074754;28;20285;-79
2022/06/22 06:38:31;;;;;;;3.20;2.27;;;24.10;52.20;;;-142.21;62.24;112049.66;5074550;28;20208;-76
2022/06/22 06:41:10;;;;;;;2.17;1.97;;;24.20;52.50;;;-142.21;60.87;112049.66;5073678;28;20278;-78
2022/06/22 06:43:45;;;;;;;2.20;2.00;;;24.20;52.20;;;-142.21;62.81;112049.66;5074182;28;20651;-78
2022/06/22 06:46:21;;;;;;;3.93;2.40;;;24.30;52.60;;;-142.21;62.07;112049.66;5073039;28;20242;-78
2022/06/22 06:48:59;;;;;;;2.93;2.33;;;24.30;52.30;;;-142.21;63.48;112049.66;5074393;28;20192;-77
2022/06/22 06:51:31;;;;;;;4.27;2.10;;;24.40;52.70;;;-142.21;62.68;112049.66;5073826;28;20287;-77
2022/06/22 06:54:07;;;;;;;4.13;2.20;;;24.40;52.70;;;-142.21;62.20;112049.66;5074434;28;20236;-78
2022/06/22 06:56:46;;;;;;;4.83;2.57;;;24.40;52.40;;;-142.21;61.05;112049.66;5074283;28;20196;-77
2022/06/22 06:59:18;;;;;;;2.93;2.40;;;24.50;52.10;;;-142.21;61.60;112049.66;5073914;28;20231;-77
2022/06/22 07:01:47;;;;;;;3.27;2.50;;;24.50;52.10;;;-142.21;63.40;112049.66;5074275;28;20622;-78
2022/06/22 07:04:24;;;;;;;4.70;2.40;;;24.50;52.50;;;-142.21;61.56;112049.66;5073343;28;20213;-79
2022/06/22 07:06:57;;;;;;;2.77;2.40;;;24.50;52.20;;;-142.21;62.29;112049.66;5074420;28;20614;-78
2022/06/22 07:09:31;;;;;;;2.37;2.10;;;24.60;52.40;;;-142.21;64.82;112049.66;5073473;28;20235;-78
2022/06/22 07:12:07;;;;;;;2.97;2.30;;;24.50;52.80;;;-142.21;63.61;112049.66;5073536;28;20224;-80
2022/06/22 07:14:40;;;;;;;3.43;2.30;;;24.60;52.90;;;-142.21;61.44;112049.66;5073652;28;20227;-78
2022/06/22 07:17:11;;;;;;;5.63;2.50;;;24.60;52.20;;;-142.21;61.39;112049.66;5073407;28;20189;-78
2022/06/22 07:19:46;;;;;;;3.33;2.23;;;24.60;52.20;;;-142.21;62.02;112049.66;5055469;28;20197;-79
2022/06/22 07:22:26;;;;;;;3.27;2.40;;;24.60;52.50;;;-142.21;63.49;112049.66;5072930;28;20311;-78
2022/06/22 07:25:05;;;;;;;4.10;2.97;;;24.70;52.90;;;-142.21;63.04;112049.66;5073774;28;20272;-79
2022/06/22 07:27:41;;;;;;;2.37;2.07;;;24.70;52.90;;;-142.21;62.58;112049.66;5072706;28;20284;-76
2022/06/22 07:30:19;;;;;;;2.67;2.27;;;24.70;52.70;;;-142.21;62.74;112049.66;5072888;28;20233;-78
2022/06/22 07:32:54;;;;;;;2.40;2.20;;;24.70;52.70;;;-142.21;63.00;112049.66;5073520;28;20272;-79
2022/06/22 07:35:31;;;;;;;11.00;4.80;;;24.70;52.70;;;-142.21;61.41;112049.66;5072679;28;20729;-78
2022/06/22 07:38:13;;;;;;;5.90;2.60;;;24.70;52.40;;;-142.21;62.96;112049.66;5071673;28;20205;-76
2022/06/22 07:41:18;;;;;;;2.27;2.03;;;24.70;52.60;;;-142.21;64.11;112049.66;5010530;28;20209;-77
2022/06/22 07:43:34;;;;;;;3.07;2.20;;;24.70;52.80;;;-142.21;65.15;112049.66;5072490;28;20284;-77
2022/06/22 07:46:11;;;;;;;6.03;2.40;;;24.70;53.10;;;-142.21;66.50;112049.66;5073098;28;20634;-77
2022/06/22 07:48:47;;;;;;;2.33;2.13;;;24.70;53.10;;;-142.21;66.90;112049.66;5072235;28;20276;-78
2022/06/22 07:51:23;;;;;;;2.77;2.37;;;24.70;53.50;;;-142.21;68.08;112049.66;5072787;28;20189;-78
2022/06/22 07:54:00;;;;;;;2.57;2.30;;;24.70;53.80;;;-142.21;67.67;112049.66;5073277;28;20185;-76
2022/06/22 07:56:42;;;;;;;3.47;2.33;;;24.70;53.80;;;-142.21;65.23;112049.66;5072213;28;20193;-79
2022/06/22 07:59:18;;;;;;;2.87;2.33;;;24.80;53.10;;;-142.21;64.69;112049.66;5071109;28;20565;-79
2022/06/22 08:01:49;;;;;;;2.83;2.63;;;24.70;52.90;;;-142.21;66.70;112049.66;5073085;28;20212;-79
2022/06/22 08:04:25;;;;;;;3.97;2.60;;;24.80;53.30;;;-142.21;66.86;112049.66;5072573;28;20193;-77
2022/06/22 08:06:59;;;;;;;3.83;2.40;;;24.80;53.50;;;-142.21;64.79;112049.66;5072931;28;20236;-78
2022/06/22 08:09:37;;;;;;;3.53;2.00;;;24.80;53.00;;;-142.21;66.06;112049.66;5070657;28;20201;-77
2022/06/22 08:12:11;;;;;;;3.73;2.40;;;24.80;53.30;;;-142.21;64.79;112049.66;5073364;28;20531;-77
2022/06/22 08:14:45;;;;;;;3.47;2.70;;;24.80;53.00;;;-142.21;66.07;112049.66;5073040;28;20672;-78
2022/06/22 08:17:21;;;;;;;2.40;2.20;;;24.80;53.30;;;-142.21;67.84;112049.66;5072561;28;20244;-78
2022/06/22 08:19:51;;;;;;;2.20;2.00;;;24.90;53.80;;;-142.21;67.07;112049.66;5071514;28;20231;-77
2022/06/22 08:22:18;;;;;;;6.77;2.90;;;24.90;53.60;;;-142.21;65.13;112049.66;5071164;28;20217;-79
2022/06/22 08:24:55;;;;;;;8.70;2.63;;;24.90;53.10;;;-142.21;65.19;112049.66;5072538;28;20205;-79
2022/06/22 08:27:26;;;;;;;4.80;2.70;;;25.00;53.20;;;-142.21;65.77;112049.66;5071841;28;20654;-78
2022/06/22 08:29:59;;;;;;;2.90;2.60;;;25.00;53.20;;;-142.21;68.13;112049.66;5072483;28;20229;-77
2022/06/22 08:32:33;;;;;;;2.90;2.60;;;25.00;53.80;;;-142.21;66.19;112049.66;5070788;28;20205;-77
2022/06/22 08:35:11;;;;;;;3.73;2.73;;;25.00;53.40;;;-142.21;67.19;112049.66;5072829;28;20546;-78
2022/06/22 08:37:52;;;;;;;3.43;2.30;;;25.00;53.80;;;-142.21;64.74;112049.66;5072717;28;20587;-75
2022/06/22 08:40:36;;;;;;;3.13;2.40;;;25.00;53.20;;;-142.21;65.98;112049.66;5070532;28;20196;-77
2022/06/22 08:43:20;;;;;;;3.43;2.63;;;24.90;53.10;;;-142.21;63.79;112049.66;5072482;28;20585;-77
2022/06/22 08:50:34;;;;;;;4.27;2.87;;;25.00;53.90;;;-142.21;69.97;112049.66;5033125;28;20248;-80
2022/06/22 08:57:03;;;;;;;2.50;2.30;;;24.90;54.20;;;-142.21;67.80;112049.66;4959272;28;20271;-78
2022/06/22 08:59:58;;;;;;;3.00;2.70;;;24.90;54.00;;;-142.21;67.89;112049.66;5032300;28;20237;-76
2022/06/22 09:03:05;;;;;;;4.03;2.33;;;24.90;54.20;;;-142.21;70.36;112049.66;4997651;28;20258;-76
2022/06/22 09:06:14;;;;;;;5.80;3.07;;;24.90;54.70;;;-142.21;65.09;112049.66;5032454;28;20221;-75
2022/06/22 09:09:15;;;;;;;3.47;2.30;;;25.00;54.00;;;-142.21;66.22;112049.66;5033861;28;20290;-76
2022/06/22 09:12:02;;;;;;;4.90;3.20;;;24.90;53.50;;;-142.21;66.57;112049.66;5031698;28;20245;-77
2022/06/22 09:15:08;;;;;;;3.63;2.17;;;25.00;53.80;;;-142.21;65.46;112049.66;5034990;28;20205;-78
2022/06/22 09:17:57;;;;;;;3.57;2.57;;;25.00;53.60;;;-142.21;65.92;112049.66;5036606;28;20631;-80
2022/06/22 09:20:47;;;;;;;3.03;2.53;;;25.00;53.50;;;-142.21;61.87;112049.66;5031664;28;20635;-78
2022/06/22 09:23:33;;;;;;;3.77;3.13;;;24.90;52.40;;;-142.21;63.01;112049.66;5031219;28;20299;-79
2022/06/22 09:26:19;;;;;;;4.27;2.53;;;24.80;52.80;;;-142.21;67.01;112049.66;5032226;28;20274;-77
2022/06/22 09:28:56;;;;;;;3.17;2.60;;;24.90;54.00;;;-142.21;68.27;112049.66;5032410;28;20193;-78
2022/06/22 09:31:57;;;;;;;3.13;2.70;;;25.00;54.20;;;-142.21;67.98;112049.66;5031403;28;20277;-77
2022/06/22 09:34:57;;;;;;;3.53;2.70;;;24.90;54.30;;;-142.21;70.18;112049.66;5028627;28;20292;-78
2022/06/22 09:37:59;;;;;;;4.47;2.40;;;25.00;54.40;;;-142.21;67.08;112049.66;5031182;28;20260;-80
2022/06/22 09:40:46;;;;;;;5.00;2.73;;;24.90;54.20;;;-142.21;70.33;112049.66;5026705;28;20202;-79
2022/06/22 09:43:58;;;;;;;3.60;3.10;;;24.60;55.00;;;-142.21;74.66;112049.66;5031602;28;20222;-78
2022/06/22 09:47:05;;;;;;;3.87;3.00;;;24.60;56.60;;;-142.21;77.00;112049.66;5030703;28;20191;-78
2022/06/22 09:50:15;;;;;;;4.40;3.00;;;24.60;57.10;;;-142.21;81.70;112049.66;5031327;28;20246;-79
2022/06/22 09:53:16;;;;;;;3.13;2.93;;;24.70;58.70;;;-142.21;80.95;112049.66;5030027;28;20260;-78
2022/06/22 09:56:35;;;;;;;4.00;3.10;;;24.70;58.40;;;-142.21;78.02;112049.66;5031576;28;20206;-77
2022/06/22 09:59:51;;;;;;;4.10;3.10;;;24.80;57.20;;;-142.21;81.07;112049.66;5020929;28;20214;-78
2022/06/22 10:03:13;;;;;;;3.33;3.00;;;24.70;58.20;;;-142.21;78.03;112049.66;5033625;28;20556;-78
2022/06/22 10:06:07;;;;;;;3.17;2.77;;;24.70;57.20;;;-142.21;79.16;112049.66;5033485;28;20256;-80
2022/06/22 10:09:10;;;;;;;7.03;3.70;;;24.70;57.50;;;-142.21;82.20;112049.66;5033964;28;20285;-78
2022/06/22 10:11:51;;;;;;;6.50;3.20;;;24.70;58.40;;;-142.21;81.79;112049.66;5017855;28;20210;-77
2022/06/22 10:14:49;;;;;;;4.67;3.30;;;24.80;58.50;;;-142.21;80.38;112049.66;5034712;28;20236;-78
2022/06/22 10:17:53;;;;;;;6.23;3.50;;;24.80;58.40;;;-142.21;79.27;112049.66;5066605;28;20260;-80
2022/06/22 10:20:40;;;;;;;5.27;3.53;;;24.80;57.90;;;-142.21;79.17;112049.66;5030674;28;20249;-79
2022/06/22 10:23:42;;;;;;;4.70;3.73;;;24.80;57.70;;;-142.21;81.86;112049.66;5034528;28;20214;-79
2022/06/22 10:26:44;;;;;;;4.57;3.13;;;24.70;59.10;;;-142.21;79.82;112049.66;5033558;28;20244;-78
2022/06/22 10:30:07;;;;;;;3.87;3.40;;;24.60;58.30;;;-142.21;81.16;112049.66;5034335;28;20257;-78
2022/06/22 10:33:17;;;;;;;7.30;3.90;;;24.50;58.90;;;-142.21;82.56;112049.66;5032838;28;20202;-78
2022/06/22 10:36:58;;;;;;;4.93;3.97;;;24.30;59.60;;;-142.21;81.92;112049.66;5034681;28;20206;-79
2022/06/22 10:40:02;;;;;;;7.73;3.50;;;24.30;58.90;;;-142.21;81.27;112049.66;4994891;28;20222;-77
2022/06/22 10:45:46;;;;;;;4.90;4.07;;;24.40;58.30;;;-142.21;81.70;112049.66;5034561;28;20260;-78
2022/06/22 10:48:44;;;;;;;4.53;3.93;;;24.40;58.50;;;-142.21;81.73;112049.66;5033720;28;20638;-78
2022/06/22 10:51:29;;;;;;;3.83;3.50;;;24.40;58.90;;;-142.21;83.20;112049.66;5033905;28;20194;-77
2022/06/22 10:54:30;;;;;;;5.37;3.77;;;24.60;59.40;;;-142.21;83.06;112049.66;5034355;28;20230;-77
2022/06/22 10:57:18;;;;;;;4.73;4.20;;;24.70;59.70;;;-142.21;83.50;112049.66;5033765;28;20194;-77
2022/06/22 11:00:20;;;;;;;4.50;4.10;;;24.80;59.60;;;-142.21;84.06;112049.66;5032655;28;20293;-77
2022/06/22 11:03:41;;;;;;;7.60;4.50;;;24.90;60.20;;;-142.21;83.90;112049.66;5033886;28;20302;-78
2022/06/22 11:06:54;;;;;;;5.37;4.40;;;24.90;60.00;;;-142.21;84.97;112049.66;4992575;28;20239;-77
2022/06/22 11:09:56;;;;;;;4.90;4.27;;;25.00;60.20;;;-142.21;85.81;112049.66;4992194;28;20657;-75
2022/06/22 11:13:06;;;;;;;7.57;4.80;;;25.10;61.00;;;-142.21;85.26;112049.66;5005587;28;20206;-80
2022/06/22 11:16:02;;;;;;;5.57;5.07;;;25.20;61.30;;;-142.21;85.64;112049.66;4959738;28;20266;-80